SHT2K EGLL-EGCC
Flight info
| Callsign | SHT2K |
|---|---|
| Flight time | 0h 34m |
| Altitude | 16000 |
| Route | ULTIB1J ULTIB T420 ELVOS ELVOS1M |
| Aircraft | A319/M-SDE2E3FGHIJ1RWXY/SB1 |
Departure
| Time | 2026-05-07 09:34 |
|---|---|
| Airport | London Heathrow Airport (EGLL) |
Arrival
| Time | 2026-05-07 10:08 |
|---|---|
| Airport | Manchester Airport (EGCC) |
| Time | Latitude | Longitude | Altitude | Speed | Heading |
|---|---|---|---|---|---|
| 2026-05-07 09:08 | 51.47403 | -0.48891 | 86 ft | 0 kts | 179° |
| 2026-05-07 09:27 | 51.47408 | -0.48891 | 86 ft | 4 kts | 179° |
| 2026-05-07 09:27 | 51.47435 | -0.48891 | 88 ft | 4 kts | 179° |
| 2026-05-07 09:27 | 51.47481 | -0.48898 | 87 ft | 4 kts | 148° |
| 2026-05-07 09:28 | 51.47499 | -0.48920 | 91 ft | 4 kts | 134° |
| 2026-05-07 09:28 | 51.47508 | -0.48935 | 90 ft | 0 kts | 134° |
| 2026-05-07 09:30 | 51.47493 | -0.48901 | 88 ft | 6 kts | 118° |
| 2026-05-07 09:30 | 51.47486 | -0.48816 | 88 ft | 10 kts | 90° |
| 2026-05-07 09:31 | 51.47486 | -0.48687 | 87 ft | 13 kts | 89° |
| 2026-05-07 09:31 | 51.47485 | -0.48529 | 86 ft | 15 kts | 99° |
| 2026-05-07 09:31 | 51.47391 | -0.48474 | 86 ft | 15 kts | 180° |
| 2026-05-07 09:31 | 51.47277 | -0.48473 | 86 ft | 15 kts | 179° |
| 2026-05-07 09:32 | 51.47163 | -0.48472 | 88 ft | 18 kts | 180° |
| 2026-05-07 09:32 | 51.47049 | -0.48471 | 87 ft | 16 kts | 180° |
| 2026-05-07 09:32 | 51.46929 | -0.48471 | 86 ft | 18 kts | 180° |
| 2026-05-07 09:32 | 51.46804 | -0.48471 | 86 ft | 13 kts | 180° |
| 2026-05-07 09:33 | 51.46705 | -0.48469 | 86 ft | 16 kts | 179° |
| 2026-05-07 09:33 | 51.46587 | -0.48467 | 86 ft | 18 kts | 179° |
| 2026-05-07 09:33 | 51.46488 | -0.48441 | 87 ft | 11 kts | 134° |
| 2026-05-07 09:33 | 51.46477 | -0.48240 | 89 ft | 41 kts | 90° |
| 2026-05-07 09:34 | 51.46479 | -0.47364 | 86 ft | 112 kts | 90° |
| 2026-05-07 09:34 | 51.46469 | -0.45796 | 124 ft | 162 kts | 90° |
| 2026-05-07 09:34 | 51.46479 | -0.44041 | 810 ft | 157 kts | 90° |
| 2026-05-07 09:34 | 51.46517 | -0.42281 | 1465 ft | 163 kts | 86° |
| 2026-05-07 09:35 | 51.46984 | -0.40484 | 1832 ft | 190 kts | 51° |
| 2026-05-07 09:35 | 51.47960 | -0.38784 | 2370 ft | 213 kts | 49° |
| 2026-05-07 09:35 | 51.49010 | -0.36917 | 2907 ft | 239 kts | 49° |
| 2026-05-07 09:35 | 51.50162 | -0.34805 | 3440 ft | 260 kts | 49° |
| 2026-05-07 09:36 | 51.51349 | -0.32554 | 3976 ft | 269 kts | 52° |
| 2026-05-07 09:36 | 51.52291 | -0.29940 | 5065 ft | 271 kts | 67° |
| 2026-05-07 09:36 | 51.53037 | -0.26687 | 6273 ft | 277 kts | 66° |
| 2026-05-07 09:36 | 51.54173 | -0.24094 | 7265 ft | 281 kts | 40° |
| 2026-05-07 09:37 | 51.55829 | -0.22628 | 8234 ft | 283 kts | 14° |
| 2026-05-07 09:37 | 51.57782 | -0.22498 | 9246 ft | 284 kts | 350° |
| 2026-05-07 09:37 | 51.59738 | -0.23107 | 10237 ft | 288 kts | 348° |
| 2026-05-07 09:37 | 51.61676 | -0.24007 | 11131 ft | 292 kts | 338° |
| 2026-05-07 09:38 | 51.63508 | -0.25463 | 12011 ft | 296 kts | 329° |
| 2026-05-07 09:38 | 51.65285 | -0.27178 | 12909 ft | 301 kts | 328° |
| 2026-05-07 09:38 | 51.67094 | -0.28926 | 13785 ft | 305 kts | 328° |
| 2026-05-07 09:38 | 51.68930 | -0.30700 | 14563 ft | 310 kts | 328° |
| 2026-05-07 09:39 | 51.70788 | -0.32498 | 15369 ft | 313 kts | 328° |
| 2026-05-07 09:39 | 51.72673 | -0.34309 | 15934 ft | 318 kts | 328° |
| 2026-05-07 09:39 | 51.74639 | -0.36202 | 16080 ft | 343 kts | 328° |
| 2026-05-07 09:39 | 51.76754 | -0.38249 | 16092 ft | 363 kts | 328° |
| 2026-05-07 09:40 | 51.78944 | -0.40366 | 16086 ft | 369 kts | 328° |
| 2026-05-07 09:40 | 51.81148 | -0.42506 | 16096 ft | 370 kts | 328° |
| 2026-05-07 09:40 | 51.83357 | -0.44648 | 16077 ft | 370 kts | 328° |
| 2026-05-07 09:40 | 51.85561 | -0.46791 | 16088 ft | 370 kts | 328° |
| 2026-05-07 09:41 | 51.87762 | -0.48934 | 16081 ft | 369 kts | 328° |
| 2026-05-07 09:41 | 51.89968 | -0.51075 | 16087 ft | 370 kts | 328° |
| 2026-05-07 09:41 | 51.92174 | -0.53213 | 16084 ft | 370 kts | 327° |
| 2026-05-07 09:41 | 51.94377 | -0.55368 | 16078 ft | 370 kts | 328° |
| 2026-05-07 09:42 | 51.96580 | -0.57524 | 16089 ft | 370 kts | 328° |
| 2026-05-07 09:42 | 51.98040 | -0.58953 | 16087 ft | 370 kts | 328° |
| 2026-05-07 09:42 | 52.00244 | -0.61115 | 16092 ft | 370 kts | 328° |
| 2026-05-07 09:42 | 52.02454 | -0.63265 | 16094 ft | 370 kts | 328° |
| 2026-05-07 09:43 | 52.04661 | -0.65431 | 16100 ft | 371 kts | 327° |
| 2026-05-07 09:43 | 52.06867 | -0.67589 | 16100 ft | 371 kts | 328° |
| 2026-05-07 09:43 | 52.09075 | -0.69755 | 16107 ft | 371 kts | 327° |
| 2026-05-07 09:43 | 52.11276 | -0.71935 | 16110 ft | 371 kts | 327° |
| 2026-05-07 09:44 | 52.13485 | -0.74105 | 16104 ft | 370 kts | 328° |
| 2026-05-07 09:44 | 52.15693 | -0.76276 | 16105 ft | 370 kts | 328° |
| 2026-05-07 09:44 | 52.17893 | -0.78454 | 16107 ft | 370 kts | 327° |
| 2026-05-07 09:44 | 52.20123 | -0.80669 | 16104 ft | 370 kts | 328° |
| 2026-05-07 09:45 | 52.22359 | -0.82879 | 16106 ft | 370 kts | 328° |
| 2026-05-07 09:45 | 52.24530 | -0.85024 | 16107 ft | 370 kts | 328° |
| 2026-05-07 09:45 | 52.26732 | -0.87205 | 16108 ft | 370 kts | 327° |
| 2026-05-07 09:45 | 52.28935 | -0.89389 | 16109 ft | 370 kts | 327° |
| 2026-05-07 09:46 | 52.31136 | -0.91583 | 16102 ft | 370 kts | 327° |
| 2026-05-07 09:46 | 52.33332 | -0.93769 | 16114 ft | 370 kts | 327° |
| 2026-05-07 09:46 | 52.35532 | -0.95969 | 16111 ft | 370 kts | 327° |
| 2026-05-07 09:46 | 52.37723 | -0.98161 | 16110 ft | 370 kts | 328° |
| 2026-05-07 09:47 | 52.39922 | -1.00351 | 16116 ft | 370 kts | 327° |
| 2026-05-07 09:47 | 52.42117 | -1.02539 | 16115 ft | 370 kts | 327° |
| 2026-05-07 09:47 | 52.44315 | -1.04745 | 16090 ft | 370 kts | 327° |
| 2026-05-07 09:47 | 52.46502 | -1.06950 | 16087 ft | 370 kts | 327° |
| 2026-05-07 09:48 | 52.48705 | -1.09154 | 16083 ft | 370 kts | 327° |
| 2026-05-07 09:48 | 52.50900 | -1.11356 | 16075 ft | 370 kts | 327° |
| 2026-05-07 09:48 | 52.53090 | -1.13572 | 16077 ft | 370 kts | 327° |
| 2026-05-07 09:48 | 52.55287 | -1.15784 | 16067 ft | 370 kts | 327° |
| 2026-05-07 09:49 | 52.57485 | -1.17989 | 16058 ft | 370 kts | 327° |
| 2026-05-07 09:49 | 52.59675 | -1.20205 | 16058 ft | 370 kts | 327° |
| 2026-05-07 09:49 | 52.61873 | -1.22428 | 16052 ft | 370 kts | 327° |
| 2026-05-07 09:49 | 52.64093 | -1.24668 | 16055 ft | 370 kts | 327° |
| 2026-05-07 09:50 | 52.66285 | -1.26887 | 16055 ft | 370 kts | 327° |
| 2026-05-07 09:50 | 52.68478 | -1.29108 | 16059 ft | 370 kts | 327° |
| 2026-05-07 09:50 | 52.70670 | -1.31333 | 16056 ft | 370 kts | 327° |
| 2026-05-07 09:50 | 52.72863 | -1.33558 | 16055 ft | 370 kts | 327° |
| 2026-05-07 09:51 | 52.75051 | -1.35792 | 16109 ft | 370 kts | 327° |
| 2026-05-07 09:51 | 52.77237 | -1.38028 | 16108 ft | 370 kts | 327° |
| 2026-05-07 09:51 | 52.79421 | -1.40257 | 16049 ft | 364 kts | 327° |
| 2026-05-07 09:51 | 52.81535 | -1.42415 | 15786 ft | 352 kts | 326° |
| 2026-05-07 09:52 | 52.83602 | -1.44539 | 15530 ft | 347 kts | 327° |
| 2026-05-07 09:52 | 52.85648 | -1.46630 | 15282 ft | 345 kts | 327° |
| 2026-05-07 09:52 | 52.87688 | -1.48720 | 15030 ft | 344 kts | 327° |
| 2026-05-07 09:52 | 52.89715 | -1.50795 | 14788 ft | 342 kts | 327° |
| 2026-05-07 09:53 | 52.91735 | -1.52873 | 14540 ft | 342 kts | 326° |
| 2026-05-07 09:53 | 52.93758 | -1.54960 | 14297 ft | 343 kts | 326° |
| 2026-05-07 09:53 | 52.95774 | -1.57040 | 14033 ft | 338 kts | 327° |
| 2026-05-07 09:53 | 52.97781 | -1.59113 | 13558 ft | 335 kts | 326° |
| 2026-05-07 09:54 | 52.99747 | -1.61151 | 13095 ft | 331 kts | 327° |
| 2026-05-07 09:54 | 53.01690 | -1.63162 | 12638 ft | 328 kts | 326° |
| 2026-05-07 09:54 | 53.03617 | -1.65153 | 12186 ft | 325 kts | 326° |
| 2026-05-07 09:54 | 53.05442 | -1.67330 | 11733 ft | 321 kts | 316° |
| 2026-05-07 09:55 | 53.06973 | -1.69997 | 11292 ft | 317 kts | 308° |
| 2026-05-07 09:55 | 53.08380 | -1.72745 | 11143 ft | 306 kts | 308° |
| 2026-05-07 09:55 | 53.09734 | -1.75375 | 11025 ft | 294 kts | 309° |
| 2026-05-07 09:55 | 53.11048 | -1.77918 | 10872 ft | 286 kts | 308° |
| 2026-05-07 09:56 | 53.12326 | -1.80402 | 10533 ft | 287 kts | 308° |
| 2026-05-07 09:56 | 53.13625 | -1.82927 | 10206 ft | 287 kts | 308° |
| 2026-05-07 09:56 | 53.15144 | -1.85069 | 9874 ft | 289 kts | 332° |
| 2026-05-07 09:56 | 53.17104 | -1.85938 | 9519 ft | 291 kts | 354° |
| 2026-05-07 09:57 | 53.19128 | -1.86123 | 9122 ft | 291 kts | 355° |
| 2026-05-07 09:57 | 53.21152 | -1.86284 | 8775 ft | 290 kts | 355° |
| 2026-05-07 09:57 | 53.23162 | -1.86448 | 8455 ft | 288 kts | 355° |
| 2026-05-07 09:57 | 53.25152 | -1.86613 | 8116 ft | 286 kts | 355° |
| 2026-05-07 09:58 | 53.27140 | -1.86754 | 7749 ft | 285 kts | 355° |
| 2026-05-07 09:58 | 53.29118 | -1.86886 | 7427 ft | 283 kts | 356° |
| 2026-05-07 09:58 | 53.31075 | -1.87032 | 7124 ft | 280 kts | 355° |
| 2026-05-07 09:58 | 53.33015 | -1.87166 | 6789 ft | 279 kts | 355° |
| 2026-05-07 09:59 | 53.34948 | -1.87285 | 6459 ft | 277 kts | 355° |
| 2026-05-07 09:59 | 53.36868 | -1.87407 | 6161 ft | 274 kts | 355° |
| 2026-05-07 09:59 | 53.38742 | -1.87536 | 6070 ft | 264 kts | 355° |
| 2026-05-07 09:59 | 53.40522 | -1.87646 | 6074 ft | 250 kts | 355° |
| 2026-05-07 10:00 | 53.42211 | -1.87740 | 6074 ft | 235 kts | 355° |
| 2026-05-07 10:00 | 53.43805 | -1.87834 | 6073 ft | 224 kts | 355° |
| 2026-05-07 10:00 | 53.45348 | -1.87921 | 6078 ft | 222 kts | 356° |
| 2026-05-07 10:00 | 53.46886 | -1.88003 | 5849 ft | 221 kts | 355° |
| 2026-05-07 10:01 | 53.48425 | -1.88075 | 5583 ft | 220 kts | 355° |
| 2026-05-07 10:01 | 53.49955 | -1.88172 | 5314 ft | 219 kts | 355° |
| 2026-05-07 10:01 | 53.51457 | -1.88471 | 5040 ft | 216 kts | 336° |
| 2026-05-07 10:01 | 53.52600 | -1.89947 | 4766 ft | 206 kts | 294° |
| 2026-05-07 10:02 | 53.52800 | -1.92192 | 4447 ft | 194 kts | 248° |
| 2026-05-07 10:02 | 53.52003 | -1.93923 | 4094 ft | 191 kts | 214° |
| 2026-05-07 10:02 | 53.50941 | -1.95315 | 3771 ft | 195 kts | 221° |
| 2026-05-07 10:02 | 53.50009 | -1.96968 | 3540 ft | 195 kts | 228° |
| 2026-05-07 10:03 | 53.49154 | -1.98749 | 3505 ft | 197 kts | 230° |
| 2026-05-07 10:03 | 53.48304 | -2.00556 | 3502 ft | 194 kts | 229° |
| 2026-05-07 10:03 | 53.47485 | -2.02281 | 3494 ft | 185 kts | 230° |
| 2026-05-07 10:03 | 53.46693 | -2.03940 | 3506 ft | 181 kts | 229° |
| 2026-05-07 10:04 | 53.45917 | -2.05561 | 3374 ft | 176 kts | 229° |
| 2026-05-07 10:04 | 53.45160 | -2.07141 | 3164 ft | 174 kts | 228° |
| 2026-05-07 10:04 | 53.44401 | -2.08725 | 2932 ft | 173 kts | 228° |
| 2026-05-07 10:04 | 53.43659 | -2.10274 | 2707 ft | 168 kts | 228° |
| 2026-05-07 10:05 | 53.42935 | -2.11785 | 2480 ft | 164 kts | 227° |
| 2026-05-07 10:05 | 53.42237 | -2.13240 | 2254 ft | 155 kts | 227° |
| 2026-05-07 10:05 | 53.41583 | -2.14605 | 2053 ft | 144 kts | 227° |
| 2026-05-07 10:05 | 53.40995 | -2.15833 | 1853 ft | 129 kts | 226° |
| 2026-05-07 10:06 | 53.40442 | -2.16980 | 1685 ft | 126 kts | 226° |
| 2026-05-07 10:06 | 53.39892 | -2.18121 | 1517 ft | 125 kts | 226° |
| 2026-05-07 10:06 | 53.39347 | -2.19247 | 1341 ft | 123 kts | 225° |
| 2026-05-07 10:06 | 53.38816 | -2.20376 | 1140 ft | 124 kts | 227° |
| 2026-05-07 10:07 | 53.38284 | -2.21506 | 981 ft | 125 kts | 227° |
| 2026-05-07 10:07 | 53.37722 | -2.22622 | 798 ft | 127 kts | 228° |
| 2026-05-07 10:07 | 53.37169 | -2.23779 | 616 ft | 128 kts | 229° |
| 2026-05-07 10:07 | 53.36619 | -2.24931 | 449 ft | 127 kts | 229° |
| 2026-05-07 10:08 | 53.36060 | -2.26081 | 304 ft | 127 kts | 229° |
| 2026-05-07 10:08 | 53.35550 | -2.27128 | 252 ft | 95 kts | 231° |
| 2026-05-07 10:08 | 53.35305 | -2.27658 | 240 ft | 37 kts | 240° |
| 2026-05-07 10:08 | 53.35249 | -2.27963 | 237 ft | 21 kts | 259° |
| 2026-05-07 10:09 | 53.35233 | -2.28158 | 231 ft | 12 kts | 271° |
| 2026-05-07 10:09 | 53.35301 | -2.28212 | 233 ft | 13 kts | 24° |
| 2026-05-07 10:09 | 53.35388 | -2.28166 | 236 ft | 14 kts | 9° |
| 2026-05-07 10:09 | 53.35495 | -2.28121 | 235 ft | 18 kts | 28° |
| 2026-05-07 10:10 | 53.35590 | -2.27970 | 238 ft | 18 kts | 52° |
| 2026-05-07 10:10 | 53.35695 | -2.27883 | 244 ft | 17 kts | 6° |
| 2026-05-07 10:10 | 53.35808 | -2.27863 | 250 ft | 16 kts | 6° |
| 2026-05-07 10:10 | 53.35914 | -2.27847 | 255 ft | 15 kts | 1° |
| 2026-05-07 10:11 | 53.36014 | -2.27932 | 255 ft | 18 kts | 319° |
| 2026-05-07 10:11 | 53.36113 | -2.28081 | 255 ft | 18 kts | 316° |
| 2026-05-07 10:11 | 53.36207 | -2.28239 | 255 ft | 20 kts | 314° |
| 2026-05-07 10:11 | 53.36313 | -2.28417 | 255 ft | 22 kts | 315° |
| 2026-05-07 10:12 | 53.36406 | -2.28489 | 255 ft | 16 kts | 339° |
| 2026-05-07 10:12 | 53.36499 | -2.28619 | 255 ft | 18 kts | 316° |
| 2026-05-07 10:12 | 53.36578 | -2.28770 | 255 ft | 17 kts | 300° |
| 2026-05-07 10:12 | 53.36646 | -2.28917 | 255 ft | 15 kts | 315° |
| 2026-05-07 10:13 | 53.36718 | -2.29040 | 255 ft | 14 kts | 315° |
| 2026-05-07 10:13 | 53.36806 | -2.29049 | 255 ft | 13 kts | 20° |
| 2026-05-07 10:13 | 53.36877 | -2.28968 | 255 ft | 12 kts | 45° |
| 2026-05-07 10:13 | 53.36935 | -2.28870 | 255 ft | 11 kts | 46° |
| 2026-05-07 10:14 | 53.36943 | -2.28780 | 255 ft | 8 kts | 134° |
| 2026-05-07 10:14 | 53.36925 | -2.28752 | 255 ft | 2 kts | 136° |
| 2026-05-07 10:14 | 53.36919 | -2.28742 | 255 ft | 1 kts | 136° |
| 2026-05-07 10:14 | 53.36919 | -2.28741 | 255 ft | 0 kts | 136° |